Time;durP1;ratioP1;P1;durP2;ratioP2;P2;SDS_P1;SDS_P2;PMS_P1;PMS_P2;Temp;Humidity;BMP_temperature;BMP_pressure;BME280_temperature;BME280_humidity;BME280_pressure;Samples;Min_cycle;Max_cycle;Signal;HPM_P1;HPM_P2
2022/11/21 00:00:10;;;;;;;6.88;1.83;;;;;;;6.07;100.00;99330.81;5053391;28;20207;-73
2022/11/21 00:02:36;;;;;;;5.28;1.30;;;;;;;6.12;100.00;99339.50;5053142;28;20206;-74
2022/11/21 00:05:03;;;;;;;4.30;2.00;;;;;;;6.08;100.00;99333.41;5051592;28;20346;-74
2022/11/21 00:07:30;;;;;;;2.58;1.33;;;;;;;6.08;100.00;99340.56;5044841;28;20294;-73
2022/11/21 00:09:56;;;;;;;2.95;1.52;;;;;;;6.09;100.00;99342.31;5060143;28;20216;-73
2022/11/21 00:12:23;;;;;;;5.43;1.80;;;;;;;6.02;100.00;99339.91;5050355;28;20275;-73
2022/11/21 00:14:51;;;;;;;3.90;1.00;;;;;;;6.03;100.00;99343.44;5050550;28;20708;-74
2022/11/21 00:17:17;;;;;;;3.58;1.23;;;;;;;6.00;100.00;99339.09;5056292;28;20263;-74
2022/11/21 00:19:44;;;;;;;3.22;1.75;;;;;;;5.97;100.00;99341.03;5060784;28;20297;-73
2022/11/21 00:22:10;;;;;;;8.27;4.10;;;;;;;5.96;100.00;99339.31;5053091;28;20234;-73
2022/11/21 00:24:38;;;;;;;2.70;1.25;;;;;;;5.91;100.00;99336.78;5054125;28;20246;-74
2022/11/21 00:27:05;;;;;;;1.80;1.15;;;;;;;5.96;100.00;99340.16;5057059;28;20655;-73
2022/11/21 00:29:31;;;;;;;4.90;1.08;;;;;;;5.95;100.00;99333.09;5055493;28;20269;-72
2022/11/21 00:31:59;;;;;;;2.33;1.00;;;;;;;5.95;100.00;99334.91;5068262;28;20185;-73
2022/11/21 00:34:26;;;;;;;2.22;0.82;;;;;;;5.90;100.00;99337.75;5052141;28;20285;-74
2022/11/21 00:36:52;;;;;;;1.63;0.90;;;;;;;5.94;100.00;99333.13;5038246;28;20264;-74
2022/11/21 00:39:19;;;;;;;2.95;1.20;;;;;;;5.95;100.00;99335.78;5045779;28;20202;-73
2022/11/21 00:41:45;;;;;;;2.58;0.98;;;;;;;5.84;100.00;99325.50;5054987;28;20203;-73
2022/11/21 00:44:12;;;;;;;3.15;1.20;;;;;;;5.88;100.00;99331.59;5059297;28;20325;-73
2022/11/21 00:46:39;;;;;;;1.73;1.00;;;;;;;5.85;100.00;99335.25;5052442;28;20206;-73
2022/11/21 00:49:08;;;;;;;2.15;0.90;;;;;;;5.92;100.00;99326.97;5052277;28;20264;-73
2022/11/21 00:51:34;;;;;;;3.03;1.20;;;;;;;5.91;100.00;99334.13;5049038;28;20282;-72
2022/11/21 00:54:01;;;;;;;3.47;1.27;;;;;;;5.96;100.00;99333.97;5057969;28;20220;-72
2022/11/21 00:56:27;;;;;;;3.08;0.98;;;;;;;5.96;100.00;99332.16;5065480;28;20222;-73
2022/11/21 00:58:54;;;;;;;1.88;1.17;;;;;;;5.96;100.00;99336.63;5049436;28;20208;-72
2022/11/21 01:01:20;;;;;;;6.20;1.15;;;;;;;5.94;100.00;99325.09;5051752;28;20225;-73
2022/11/21 01:03:47;;;;;;;3.15;1.00;;;;;;;5.85;100.00;99321.03;5053672;28;20284;-73
2022/11/21 01:06:16;;;;;;;1.88;1.20;;;;;;;5.84;100.00;99328.19;5056238;28;20269;-73
2022/11/21 01:08:44;;;;;;;2.22;1.20;;;;;;;5.74;100.00;99318.81;5052369;28;20262;-72
2022/11/21 01:11:14;;;;;;;5.85;1.15;;;;;;;5.81;100.00;99330.09;5050682;28;20234;-74
2022/11/21 01:13:42;;;;;;;4.25;1.10;;;;;;;5.83;100.00;99325.56;5061671;28;20214;-73
2022/11/21 01:16:11;;;;;;;5.45;1.30;;;;;;;5.84;100.00;99320.16;5062594;28;20735;-72
2022/11/21 01:18:38;;;;;;;2.28;1.00;;;;;;;5.88;100.00;99320.91;5060674;28;20287;-73
2022/11/21 01:21:08;;;;;;;2.17;1.00;;;;;;;5.89;100.00;99313.75;5049345;28;20258;-73
2022/11/21 01:23:36;;;;;;;2.10;1.20;;;;;;;5.92;100.00;99310.94;5043808;28;20202;-74
2022/11/21 01:26:04;;;;;;;1.73;0.90;;;;;;;6.00;100.00;99315.03;5047876;28;20333;-74
2022/11/21 01:28:31;;;;;;;2.42;1.17;;;;;;;6.04;100.00;99310.44;5055773;28;20227;-74
2022/11/21 01:31:03;;;;;;;2.45;1.20;;;;;;;6.02;100.00;99313.19;5046897;28;20263;-73
2022/11/21 01:33:30;;;;;;;2.53;1.40;;;;;;;6.05;100.00;99304.16;5049938;28;20217;-74
2022/11/21 01:35:56;;;;;;;1.63;1.08;;;;;;;6.09;100.00;99295.06;5060387;28;20207;-74
2022/11/21 01:38:23;;;;;;;4.15;1.70;;;;;;;6.11;100.00;99290.53;5047102;28;20214;-74
2022/11/21 01:40:51;;;;;;;4.00;1.25;;;;;;;6.18;100.00;99286.63;5048982;28;20263;-73
2022/11/21 01:43:18;;;;;;;6.07;2.10;;;;;;;6.24;100.00;99296.16;5057564;28;20203;-74
2022/11/21 01:46:04;;;;;;;2.10;1.42;;;;;;;6.25;100.00;99295.25;5048158;28;20234;-74
2022/11/21 01:48:37;;;;;;;4.20;1.75;;;;;;;6.25;100.00;99300.59;5033424;28;20267;-73
2022/11/21 01:51:10;;;;;;;5.32;2.80;;;;;;;6.21;100.00;99297.19;5039464;28;20196;-73
2022/11/21 01:53:40;;;;;;;3.75;2.03;;;;;;;6.21;100.00;99297.19;5039305;28;20207;-73
2022/11/21 01:56:09;;;;;;;10.07;3.00;;;;;;;6.19;100.00;99300.84;5039147;28;20222;-75
2022/11/21 01:58:37;;;;;;;4.75;2.25;;;;;;;6.21;100.00;99291.81;5038038;28;20742;-71
2022/11/21 02:01:03;;;;;;;5.55;2.58;;;;;;;6.17;100.00;99289.38;5039430;28;20209;-73
2022/11/21 02:03:34;;;;;;;5.78;2.40;;;;;;;6.23;100.00;99292.63;5037184;28;20233;-72
2022/11/21 02:06:01;;;;;;;7.70;2.45;;;;;;;6.22;100.00;99295.41;5047181;28;20210;-73
2022/11/21 02:08:28;;;;;;;9.30;2.80;;;;;;;6.24;100.00;99299.72;5037987;28;20294;-74
2022/11/21 02:11:06;;;;;;;10.27;1.92;;;;;;;6.19;100.00;99295.50;5038828;28;20227;-73
2022/11/21 02:13:34;;;;;;;6.45;3.03;;;;;;;6.14;100.00;99300.22;5038799;28;20195;-73
2022/11/21 02:16:02;;;;;;;12.35;3.08;;;;;;;6.16;100.00;99306.34;5038005;28;20681;-72
2022/11/21 02:18:28;;;;;;;4.30;2.72;;;;;;;6.15;100.00;99302.81;5038297;28;20640;-73
2022/11/21 02:21:03;;;;;;;5.80;2.47;;;;;;;6.20;100.00;99308.81;5035877;28;20266;-73
2022/11/21 02:23:39;;;;;;;7.97;2.75;;;;;;;6.23;100.00;99305.13;5045794;28;20225;-72
2022/11/21 02:26:07;;;;;;;9.20;2.70;;;;;;;6.27;100.00;99304.06;5036438;28;20313;-73
2022/11/21 02:28:34;;;;;;;7.32;2.50;;;;;;;6.25;100.00;99300.59;5051036;28;20206;-73
2022/11/21 02:31:00;;;;;;;8.00;2.75;;;;;;;6.25;100.00;99295.25;5049913;28;20205;-73
2022/11/21 02:33:27;;;;;;;7.78;2.47;;;;;;;6.14;100.00;99285.03;5048791;28;20229;-73
2022/11/21 02:35:58;;;;;;;6.75;2.70;;;;;;;6.12;100.00;99281.56;5045751;28;20547;-72
2022/11/21 02:38:28;;;;;;;5.07;1.90;;;;;;;6.05;100.00;99285.44;5049245;28;20666;-74
2022/11/21 02:41:02;;;;;;;8.27;3.00;;;;;;;5.97;100.00;99280.44;5041423;28;20231;-73
2022/11/21 02:43:33;;;;;;;6.93;2.13;;;;;;;5.98;100.00;99281.31;5048077;28;20198;-73
2022/11/21 02:46:00;;;;;;;5.50;2.40;;;;;;;5.97;100.00;99279.56;5050515;28;20300;-71
2022/11/21 02:48:26;;;;;;;5.43;2.60;;;;;;;5.93;100.00;99283.28;5045505;28;20213;-73
2022/11/21 02:50:53;;;;;;;7.57;3.15;;;;;;;5.94;100.00;99272.53;5050281;28;20194;-73
2022/11/21 02:53:19;;;;;;;5.78;3.05;;;;;;;5.93;100.00;99275.28;5036654;28;20298;-74
2022/11/21 02:55:46;;;;;;;9.15;3.17;;;;;;;5.91;100.00;99267.31;5043994;28;20580;-73
2022/11/21 02:58:13;;;;;;;9.63;3.25;;;;;;;5.95;100.00;99290.34;5051718;28;20683;-73
2022/11/21 03:00:42;;;;;;;4.93;2.33;;;;;;;5.92;100.00;99284.22;5046251;28;20286;-73
2022/11/21 03:03:08;;;;;;;8.20;3.00;;;;;;;5.91;100.00;99286.03;5047030;28;20239;-73
2022/11/21 03:05:35;;;;;;;7.85;2.95;;;;;;;5.91;100.00;99283.34;5038812;28;20221;-72
2022/11/21 03:08:02;;;;;;;7.32;2.78;;;;;;;6.00;100.00;99291.00;5036107;28;20568;-73
2022/11/21 03:10:28;;;;;;;8.77;2.80;;;;;;;6.02;100.00;99290.94;5042401;28;20627;-73
2022/11/21 03:12:59;;;;;;;7.20;3.10;;;;;;;6.09;100.00;99299.56;5054414;28;20230;-73
2022/11/21 03:15:27;;;;;;;8.88;4.22;;;;;;;6.14;100.00;99300.22;5061286;28;20219;-73
2022/11/21 03:17:56;;;;;;;9.77;2.67;;;;;;;6.18;100.00;99288.44;5050670;28;20215;-73
2022/11/21 03:20:22;;;;;;;9.27;2.53;;;;;;;6.19;100.00;99300.84;5045734;28;20219;-74
2022/11/21 03:22:49;;;;;;;9.40;2.90;;;;;;;6.21;100.00;99299.84;5043638;28;20291;-73
2022/11/21 03:25:16;;;;;;;7.80;2.45;;;;;;;6.26;100.00;99305.00;5043029;28;20253;-73
2022/11/21 03:27:42;;;;;;;5.50;2.35;;;;;;;6.25;100.00;99319.31;5035677;28;20259;-74
2022/11/21 03:30:10;;;;;;;5.13;2.55;;;;;;;6.26;100.00;99305.88;5043364;28;20208;-74
2022/11/21 03:32:36;;;;;;;7.50;3.53;;;;;;;6.20;100.00;99295.44;5039305;28;20204;-75
2022/11/21 03:35:05;;;;;;;6.63;2.90;;;;;;;6.18;100.00;99304.47;5037541;28;20222;-76
2022/11/21 03:37:32;;;;;;;6.38;2.75;;;;;;;6.24;100.00;99306.84;5038638;28;20608;-75
2022/11/21 03:39:58;;;;;;;8.40;2.72;;;;;;;6.28;100.00;99308.47;5038286;28;20293;-74
2022/11/21 03:42:25;;;;;;;10.32;2.80;;;;;;;6.28;100.00;99305.78;5038288;28;20204;-73
2022/11/21 03:44:51;;;;;;;5.05;2.75;;;;;;;6.28;100.00;99303.13;5045715;28;20221;-72
2022/11/21 03:47:18;;;;;;;13.27;4.07;;;;;;;6.26;100.00;99305.00;5041374;28;20286;-73
2022/11/21 03:49:44;;;;;;;5.25;2.58;;;;;;;6.20;100.00;99308.81;5040027;28;20211;-73
2022/11/21 03:52:12;;;;;;;7.35;2.80;;;;;;;6.23;100.00;99314.03;5040917;28;20288;-73
2022/11/21 03:54:39;;;;;;;7.53;3.13;;;;;;;6.16;100.00;99307.22;5040050;28;20314;-73
2022/11/21 03:57:05;;;;;;;3.58;1.90;;;;;;;6.15;100.00;99323.31;5037589;28;20209;-73
2022/11/21 03:59:32;;;;;;;7.07;2.60;;;;;;;6.16;100.00;99317.91;5035890;28;20207;-73
2022/11/21 04:01:58;;;;;;;8.35;3.13;;;;;;;6.21;100.00;99307.00;5027393;28;20203;-74
2022/11/21 04:04:25;;;;;;;3.63;2.15;;;;;;;6.21;100.00;99310.53;5033793;28;20232;-73
2022/11/21 04:06:52;;;;;;;9.57;1.95;;;;;;;6.22;100.00;99306.09;5036622;28;20286;-72
2022/11/21 04:09:19;;;;;;;5.75;2.00;;;;;;;6.28;100.00;99319.16;5036484;28;20200;-73
2022/11/21 04:11:46;;;;;;;11.52;3.00;;;;;;;6.29;100.00;99326.25;5037024;28;20581;-73
2022/11/21 04:14:12;;;;;;;7.25;2.58;;;;;;;6.32;100.00;99315.41;5037527;28;20323;-73
2022/11/21 04:16:39;;;;;;;3.72;2.10;;;;;;;6.39;100.00;99324.88;5036549;28;20214;-73
2022/11/21 04:19:06;;;;;;;4.53;2.47;;;;;;;6.43;100.00;99331.84;5035185;28;20207;-73
2022/11/21 04:21:32;;;;;;;8.40;3.08;;;;;;;6.44;100.00;99324.69;5032947;28;20717;-73
2022/11/21 04:24:00;;;;;;;12.82;2.72;;;;;;;6.46;100.00;99328.16;5047738;28;20275;-74
2022/11/21 04:26:28;;;;;;;8.40;2.80;;;;;;;6.40;100.00;99337.34;5042260;28;20310;-73
2022/11/21 04:28:54;;;;;;;6.30;2.78;;;;;;;6.37;100.00;99324.09;5046891;28;20573;-74
2022/11/21 04:31:21;;;;;;;4.38;2.13;;;;;;;6.39;100.00;99324.88;5041950;28;20200;-73
2022/11/21 04:33:47;;;;;;;4.47;2.20;;;;;;;6.40;100.00;99331.09;5039092;28;20242;-73
2022/11/21 04:36:14;;;;;;;5.47;2.08;;;;;;;6.45;100.00;99334.47;5032749;28;20212;-73
2022/11/21 04:38:41;;;;;;;3.15;2.20;;;;;;;6.47;100.00;99336.13;5042722;28;20265;-74
2022/11/21 04:41:07;;;;;;;4.28;2.15;;;;;;;6.48;100.00;99321.78;5052653;28;20199;-73
2022/11/21 04:43:35;;;;;;;6.95;2.80;;;;;;;6.50;100.00;99336.91;5049498;28;20270;-73
2022/11/21 04:46:02;;;;;;;6.47;2.25;;;;;;;6.46;100.00;99323.66;5041551;28;20226;-73
2022/11/21 04:48:28;;;;;;;7.78;2.65;;;;;;;6.49;100.00;99328.03;5044681;28;20289;-73
2022/11/21 04:50:55;;;;;;;6.43;2.42;;;;;;;6.53;100.00;99326.94;5045421;28;20578;-73
2022/11/21 04:53:21;;;;;;;5.97;2.50;;;;;;;6.48;100.00;99334.31;5049787;28;20229;-74
2022/11/21 04:55:48;;;;;;;4.80;2.30;;;;;;;6.48;100.00;99332.50;5048213;28;20201;-74
2022/11/21 04:58:14;;;;;;;4.35;2.40;;;;;;;6.46;100.00;99328.16;5047485;28;20218;-74
2022/11/21 05:00:42;;;;;;;5.20;2.78;;;;;;;6.43;100.00;99328.31;5044735;28;20279;-74
2022/11/21 05:03:09;;;;;;;4.85;2.20;;;;;;;6.40;100.00;99333.78;5048150;28;20270;-74
2022/11/21 05:05:36;;;;;;;5.30;2.10;;;;;;;6.42;100.00;99334.56;5069471;22;20274;-72
2022/11/21 05:08:02;;;;;;;5.15;2.20;;;;;;;6.40;100.00;99333.78;5062149;28;20206;-74
2022/11/21 05:10:29;;;;;;;3.67;2.00;;;;;;;6.40;100.00;99334.66;5058076;28;20237;-72
2022/11/21 05:15:46;;;;;;;6.28;2.65;;;;;;;6.36;100.00;99342.91;5046705;28;20223;-72
2022/11/21 05:18:13;;;;;;;8.27;2.50;;;;;;;6.37;100.00;99339.28;5054046;28;20617;-74
2022/11/21 05:20:39;;;;;;;5.45;1.67;;;;;;;6.37;100.00;99342.81;5038572;28;20207;-74
2022/11/21 05:23:06;;;;;;;4.93;2.22;;;;;;;6.35;100.00;99341.16;5045112;28;20239;-73
2022/11/21 05:25:32;;;;;;;3.58;1.60;;;;;;;6.32;100.00;99343.97;5044188;28;20216;-74
2022/11/21 05:27:59;;;;;;;6.20;1.50;;;;;;;6.30;100.00;99340.50;5044223;28;20211;-73
2022/11/21 05:30:26;;;;;;;5.20;1.70;;;;;;;6.33;100.00;99343.00;5053458;28;20347;-75
2022/11/21 05:32:54;;;;;;;3.70;2.47;;;;;;;6.32;100.00;99347.50;5051453;28;20273;-73
2022/11/21 05:35:20;;;;;;;3.92;1.67;;;;;;;6.26;100.00;99345.09;5046044;28;20231;-72
2022/11/21 05:37:47;;;;;;;2.80;2.15;;;;;;;6.29;100.00;99342.31;5041824;28;20203;-73
2022/11/21 05:40:13;;;;;;;2.35;1.65;;;;;;;6.30;100.00;99338.69;5050638;28;20300;-74
2022/11/21 05:45:25;;;;;;;4.05;2.08;;;;;;;6.18;100.00;99326.72;5047077;28;20246;-73
2022/11/21 05:47:53;;;;;;;3.28;1.70;;;;;;;6.11;100.00;99321.75;5038922;28;20446;-74
2022/11/21 05:50:20;;;;;;;6.30;1.88;;;;;;;6.03;100.00;99333.59;5031653;28;20210;-72
2022/11/21 05:52:46;;;;;;;3.95;1.85;;;;;;;6.07;100.00;99328.16;5040191;28;20563;-73
2022/11/21 05:55:13;;;;;;;5.70;2.45;;;;;;;6.08;100.00;99330.72;5039962;28;20224;-73
2022/11/21 05:57:40;;;;;;;2.70;1.85;;;;;;;6.11;100.00;99333.28;5045355;28;20196;-72
2022/11/21 06:00:08;;;;;;;6.15;1.85;;;;;;;6.07;100.00;99331.69;5035464;28;20197;-74
2022/11/21 06:05:20;;;;;;;4.65;1.85;;;;;;;6.12;100.00;99336.81;5035963;28;20230;-73
2022/11/21 06:07:46;;;;;;;9.02;2.30;;;;;;;6.13;100.00;99341.22;5035151;28;20686;-75
2022/11/21 06:10:13;;;;;;;6.28;1.63;;;;;;;6.10;100.00;99336.03;5039455;28;20295;-75
2022/11/21 06:12:39;;;;;;;4.47;1.70;;;;;;;6.05;100.00;99331.75;5032850;28;20187;-74
2022/11/21 06:15:07;;;;;;;5.10;2.15;;;;;;;5.97;100.00;99333.00;5042701;28;20212;-75
2022/11/21 06:17:34;;;;;;;11.98;2.47;;;;;;;5.98;100.00;99337.44;5045773;28;20219;-73
2022/11/21 06:20:00;;;;;;;5.72;3.13;;;;;;;5.93;100.00;99339.41;5045282;28;20207;-73
2022/11/21 06:22:28;;;;;;;7.30;3.22;;;;;;;5.87;100.00;99337.00;5039931;28;20268;-73
2022/11/21 06:24:55;;;;;;;6.00;2.00;;;;;;;5.83;100.00;99342.47;5046370;28;20222;-74
2022/11/21 06:27:21;;;;;;;4.57;2.17;;;;;;;5.81;100.00;99341.69;5037963;28;20221;-74
2022/11/21 06:29:48;;;;;;;8.68;2.95;;;;;;;5.82;100.00;99348.75;5044857;28;20677;-73
2022/11/21 06:32:14;;;;;;;5.50;2.50;;;;;;;5.83;100.00;99344.25;5040319;28;20203;-73
2022/11/21 06:34:41;;;;;;;4.93;2.42;;;;;;;5.78;100.00;99343.59;5042786;28;20246;-73
2022/11/21 06:37:07;;;;;;;3.47;2.47;;;;;;;5.77;100.00;99340.06;5040964;28;20218;-74
2022/11/21 06:39:35;;;;;;;4.85;2.35;;;;;;;5.70;100.00;99349.28;5026058;28;20664;-74
2022/11/21 06:42:02;;;;;;;4.63;1.80;;;;;;;5.65;100.00;99340.56;5040788;28;20203;-74
2022/11/21 06:44:28;;;;;;;4.47;2.22;;;;;;;5.60;100.00;99338.09;5038078;28;20252;-74
2022/11/21 06:46:55;;;;;;;5.22;2.70;;;;;;;5.60;100.00;99340.75;5038739;28;20432;-73
2022/11/21 06:49:22;;;;;;;6.38;2.60;;;;;;;5.58;100.00;99339.94;5041865;28;20224;-74
2022/11/21 06:51:48;;;;;;;6.95;2.10;;;;;;;5.63;100.00;99348.66;5047694;28;20203;-73
2022/11/21 06:54:15;;;;;;;4.13;2.75;;;;;;;5.67;100.00;99345.84;5046020;28;20590;-74
2022/11/21 06:56:43;;;;;;;5.10;2.13;;;;;;;5.66;100.00;99345.00;5038279;28;20215;-77
2022/11/21 06:59:10;;;;;;;5.18;2.15;;;;;;;5.69;100.00;99350.19;5035570;28;20225;-75
2022/11/21 07:01:36;;;;;;;6.15;1.83;;;;;;;5.76;100.00;99353.47;5028019;28;20204;-74
2022/11/21 07:04:03;;;;;;;4.95;2.10;;;;;;;5.80;100.00;99357.75;5027123;28;20232;-75
2022/11/21 07:06:29;;;;;;;3.75;2.28;;;;;;;5.87;100.00;99361.03;5033270;28;20219;-73
2022/11/21 07:08:56;;;;;;;4.43;2.40;;;;;;;5.84;100.00;99354.03;5057803;28;20270;-74
2022/11/21 07:11:23;;;;;;;3.65;2.25;;;;;;;5.87;100.00;99353.88;5051186;28;20229;-74
2022/11/21 07:13:49;;;;;;;3.65;2.42;;;;;;;5.85;100.00;99348.59;5049898;28;20221;-75
2022/11/21 07:16:16;;;;;;;4.28;2.40;;;;;;;6.01;100.00;99350.66;5037475;28;20200;-74
2022/11/21 07:18:44;;;;;;;3.75;2.63;;;;;;;6.00;100.00;99355.13;5032654;28;20195;-72
2022/11/21 07:21:11;;;;;;;3.67;2.15;;;;;;;6.09;100.00;99358.34;5037083;28;20478;-73
2022/11/21 07:23:37;;;;;;;4.78;2.20;;;;;;;6.12;100.00;99348.38;5033508;28;20260;-73
2022/11/21 07:26:06;;;;;;;7.18;2.20;;;;;;;6.09;100.00;99353.00;5033764;28;20220;-72
2022/11/21 07:28:34;;;;;;;4.55;2.45;;;;;;;6.18;100.00;99357.94;5039600;28;20199;-73
2022/11/21 07:31:03;;;;;;;4.18;2.35;;;;;;;6.18;100.00;99360.63;5039450;28;20246;-73
2022/11/21 07:33:30;;;;;;;4.97;2.70;;;;;;;6.31;100.00;99367.19;5036461;28;20207;-72
2022/11/21 07:35:57;;;;;;;4.55;2.10;;;;;;;6.56;100.00;99374.09;5039719;28;20252;-73
2022/11/21 07:38:24;;;;;;;3.70;2.15;;;;;;;6.61;100.00;99374.75;5032092;28;20200;-72
2022/11/21 07:40:50;;;;;;;3.05;1.65;;;;;;;6.75;100.00;99369.63;5046060;28;20203;-73
2022/11/21 07:43:17;;;;;;;3.85;1.80;;;;;;;7.04;100.00;99380.78;5034381;28;20201;-72
2022/11/21 07:45:44;;;;;;;2.80;2.00;;;;;;;7.08;100.00;99369.00;5033887;28;20713;-72
2022/11/21 07:48:12;;;;;;;4.35;2.10;;;;;;;6.89;100.00;99374.34;5037197;28;20694;-72
2022/11/21 07:50:39;;;;;;;2.78;1.80;;;;;;;6.74;100.00;99377.72;5040638;28;20679;-73
2022/11/21 07:53:09;;;;;;;3.30;2.20;;;;;;;6.68;100.00;99378.88;5036771;28;20201;-73
2022/11/21 07:55:35;;;;;;;4.38;1.98;;;;;;;6.61;100.00;99383.63;5029994;28;20348;-72
2022/11/21 07:58:04;;;;;;;2.97;1.85;;;;;;;6.59;100.00;99381.97;5035145;28;20284;-73
2022/11/21 08:00:32;;;;;;;7.65;1.95;;;;;;;6.58;100.00;99385.56;5044109;28;20267;-73
2022/11/21 08:02:59;;;;;;;3.45;2.13;;;;;;;6.60;100.00;99381.03;5035928;28;20196;-73
2022/11/21 08:05:27;;;;;;;5.72;2.50;;;;;;;6.64;100.00;99374.59;5043627;28;20233;-72
2022/11/21 08:07:54;;;;;;;5.43;2.00;;;;;;;6.63;100.00;99381.78;5032464;28;20257;-75
2022/11/21 08:10:20;;;;;;;3.67;2.15;;;;;;;6.66;100.00;99378.06;5027790;28;20670;-74
2022/11/21 08:12:47;;;;;;;3.55;1.90;;;;;;;6.71;100.00;99375.19;5046455;28;20214;-74
2022/11/21 08:15:14;;;;;;;3.53;2.13;;;;;;;6.79;100.00;99368.56;5057556;28;20247;-72
2022/11/21 08:17:40;;;;;;;3.50;2.03;;;;;;;6.88;100.00;99373.47;5044143;28;20204;-73
2022/11/21 08:20:08;;;;;;;4.70;2.00;;;;;;;7.15;100.00;99364.22;5040433;28;20201;-72
2022/11/21 08:22:39;;;;;;;3.97;2.40;;;;;;;7.33;100.00;99368.69;5033461;28;20202;-72
2022/11/21 08:25:08;;;;;;;4.15;1.80;;;;;;;8.05;100.00;99366.88;5045081;28;20220;-74
2022/11/21 08:27:34;;;;;;;4.95;2.35;;;;;;;8.24;100.00;99362.31;5031958;28;20310;-73
2022/11/21 08:30:01;;;;;;;4.80;2.15;;;;;;;7.85;100.00;99359.88;5037343;28;20297;-71
2022/11/21 08:32:29;;;;;;;4.78;2.47;;;;;;;7.64;100.00;99354.66;5043913;28;20209;-74
2022/11/21 08:34:58;;;;;;;5.35;2.40;;;;;;;7.39;100.00;99364.84;5043240;28;20252;-75
2022/11/21 08:37:24;;;;;;;5.28;2.20;;;;;;;7.25;100.00;99365.50;5038979;28;20232;-73
2022/11/21 08:39:52;;;;;;;4.57;2.30;;;;;;;7.19;100.00;99355.97;5036032;28;20579;-74
2022/11/21 08:42:19;;;;;;;3.58;2.13;;;;;;;7.35;100.00;99363.25;5035870;28;20276;-73
2022/11/21 08:44:46;;;;;;;6.68;2.42;;;;;;;7.38;100.00;99355.06;5034764;28;20225;-74
2022/11/21 08:47:15;;;;;;;2.67;2.35;;;;;;;7.44;100.00;99350.28;5036173;28;20225;-73
2022/11/21 08:49:42;;;;;;;4.85;1.95;;;;;;;7.44;100.00;99347.59;5037351;28;20197;-74
2022/11/21 08:52:09;;;;;;;30.90;21.45;;;;;;;8.05;100.00;99349.00;5032505;28;20304;-73
2022/11/21 08:54:35;;;;;;;18.20;10.73;;;;;;;8.09;100.00;99347.00;5028828;28;20225;-74
2022/11/21 08:57:04;;;;;;;3.35;2.28;;;;;;;7.91;100.00;99338.09;5035589;28;20232;-75
2022/11/21 08:59:32;;;;;;;6.15;2.10;;;;;;;7.78;100.00;99334.31;5034369;28;20206;-74
2022/11/21 09:01:59;;;;;;;3.67;2.10;;;;;;;7.71;100.00;99337.31;5037962;28;20208;-72
2022/11/21 09:04:26;;;;;;;3.75;1.73;;;;;;;7.82;100.00;99335.91;5034606;28;20239;-74
2022/11/21 09:06:52;;;;;;;4.97;2.50;;;;;;;7.64;100.00;99335.00;5035079;28;20221;-73
2022/11/21 09:09:19;;;;;;;4.38;1.92;;;;;;;7.54;100.00;99348.00;5033349;28;20905;-73
2022/11/21 09:11:46;;;;;;;5.50;2.13;;;;;;;7.42;100.00;99351.31;5031405;28;20216;-71
2022/11/21 09:19:41;;;;;;;3.15;2.00;;;;;;;7.27;100.00;99348.41;5033840;28;20247;-72
2022/11/21 09:22:08;;;;;;;3.30;1.90;;;;;;;7.36;100.00;99351.59;5033664;28;20206;-73
2022/11/21 09:24:35;;;;;;;4.05;1.75;;;;;;;7.37;100.00;99346.19;5042651;28;20267;-72
2022/11/21 09:27:01;;;;;;;2.22;1.70;;;;;;;7.48;100.00;99346.53;5044300;28;20316;-73
2022/11/21 09:29:29;;;;;;;3.17;1.80;;;;;;;7.70;100.00;99340.06;5037118;28;20220;-71
2022/11/21 09:31:55;;;;;;;2.63;1.73;;;;;;;7.82;100.00;99336.75;5036523;28;20210;-74
2022/11/21 09:34:22;;;;;;;4.57;2.00;;;;;;;7.94;100.00;99344.19;5035548;28;20309;-74
2022/11/21 09:36:48;;;;;;;5.20;1.63;;;;;;;8.03;100.00;99332.13;5036353;28;20196;-73
2022/11/21 09:39:16;;;;;;;3.10;1.80;;;;;;;8.40;100.00;99337.38;5037294;28;20300;-71
2022/11/21 09:41:55;;;;;;;4.72;2.25;;;;;;;8.25;100.00;99337.22;5034137;28;20259;-71
2022/11/21 09:44:44;;;;;;;3.75;1.70;;;;;;;8.66;100.00;99335.97;5033816;28;20313;-73
2022/11/21 09:47:21;;;;;;;3.38;2.15;;;;;;;9.01;100.00;99341.25;5030719;28;20206;-71
2022/11/21 09:49:54;;;;;;;2.90;2.00;;;;;;;9.55;100.00;99322.94;5035560;28;20223;-72
2022/11/21 09:52:25;;;;;;;4.95;1.75;;;;;;;9.85;100.00;99335.50;5029466;28;20208;-73
2022/11/21 09:54:57;;;;;;;3.75;1.70;;;;;;;10.12;100.00;99336.53;5036010;28;20791;-75
2022/11/21 09:57:25;;;;;;;4.10;1.88;;;;;;;10.66;100.00;99330.59;5035019;28;20723;-74
2022/11/21 09:59:55;;;;;;;5.18;1.85;;;;;;;11.07;100.00;99327.94;5030107;28;20579;-71
2022/11/21 10:02:23;;;;;;;3.13;1.75;;;;;;;11.27;100.00;99313.19;5034052;28;20202;-74
2022/11/21 10:04:51;;;;;;;3.65;1.80;;;;;;;12.26;100.00;99314.69;5036234;28;20322;-74
2022/11/21 10:07:24;;;;;;;4.32;2.30;;;;;;;13.09;100.00;99309.66;5034213;28;20691;-74
2022/11/21 10:10:10;;;;;;;3.55;1.73;;;;;;;12.82;100.00;99309.81;5027597;28;20198;-74
2022/11/21 10:12:43;;;;;;;3.05;1.80;;;;;;;11.75;100.00;99306.47;5034253;28;20228;-74
2022/11/21 10:15:23;;;;;;;3.75;1.77;;;;;;;10.84;100.00;99293.56;5039543;28;20217;-73
2022/11/21 10:18:07;;;;;;;2.67;1.73;;;;;;;10.79;100.00;99296.53;5032748;28;20284;-76
2022/11/21 10:20:50;;;;;;;49.30;35.75;;;;;;;11.86;100.00;99285.88;5028196;28;20201;-72
2022/11/21 10:23:34;;;;;;;12.00;7.70;;;;;;;12.56;100.00;99289.19;5034565;28;20196;-75
2022/11/21 10:26:13;;;;;;;4.45;1.70;;;;;;;12.48;97.71;99284.31;5032882;28;20232;-75
2022/11/21 10:28:45;;;;;;;4.57;1.80;;;;;;;12.29;100.00;99279.38;5026837;28;20206;-73
2022/11/21 10:31:15;;;;;;;3.28;1.55;;;;;;;12.71;96.96;99266.50;5035345;28;20248;-72
2022/11/21 10:33:41;;;;;;;3.38;1.50;;;;;;;13.14;90.77;99272.31;5031446;28;20221;-74
2022/11/21 10:36:14;;;;;;;3.67;1.60;;;;;;;12.61;94.92;99276.22;5035945;28;20344;-73
2022/11/21 10:38:43;;;;;;;4.72;1.88;;;;;;;12.51;96.61;99273.31;5034647;28;20247;-74
2022/11/21 10:41:18;;;;;;;2.67;1.45;;;;;;;13.19;89.30;99265.72;5038843;28;20204;-75
2022/11/21 10:46:39;;;;;;;2.25;1.52;;;;;;;14.44;76.37;99267.88;5033292;28;20201;-73
2022/11/21 10:49:12;;;;;;;3.20;1.73;;;;;;;12.92;84.65;99258.66;5032389;28;20236;-75
2022/11/21 10:51:48;;;;;;;2.72;1.55;;;;;;;11.60;99.32;99263.38;5041598;28;20270;-73
2022/11/21 10:54:33;;;;;;;4.43;1.60;;;;;;;11.13;100.00;99259.34;5039765;28;20420;-74
2022/11/21 10:57:05;;;;;;;4.35;1.80;;;;;;;10.63;100.00;99253.56;5033532;28;20643;-74
2022/11/21 10:59:31;;;;;;;4.43;2.00;;;;;;;10.66;100.00;99249.81;5034689;28;20639;-75
2022/11/21 11:02:01;;;;;;;2.05;1.30;;;;;;;11.94;100.00;99254.81;5040788;28;20236;-73
2022/11/21 11:04:29;;;;;;;4.10;1.42;;;;;;;12.90;91.63;99241.69;5035169;28;20230;-73
2022/11/21 11:06:58;;;;;;;3.25;1.70;;;;;;;12.03;97.03;99241.59;5055628;23;20621;-74
2022/11/21 11:09:30;;;;;;;5.20;2.25;;;;;;;11.83;100.00;99242.06;5035671;28;20204;-72
2022/11/21 11:12:22;;;;;;;3.80;1.80;;;;;;;12.50;90.87;99237.34;5045231;28;20201;-73
2022/11/21 11:14:55;;;;;;;3.80;1.50;;;;;;;12.05;91.18;99241.47;5043558;28;20202;-72
2022/11/21 11:17:29;;;;;;;2.33;1.48;;;;;;;10.95;100.00;99223.69;5022700;28;20762;-73
2022/11/21 11:20:01;;;;;;;6.25;1.65;;;;;;;12.05;100.00;99230.66;5020182;28;20194;-74
2022/11/21 11:22:29;;;;;;;3.67;1.40;;;;;;;14.05;82.30;99227.59;5017271;28;20202;-73
2022/11/21 11:24:56;;;;;;;3.45;1.73;;;;;;;13.01;81.44;99220.16;5014697;28;20204;-73
2022/11/21 11:27:27;;;;;;;5.70;1.85;;;;;;;12.45;94.33;99214.34;5030242;28;20246;-75
2022/11/21 11:29:54;;;;;;;2.65;1.50;;;;;;;12.83;92.67;99205.28;5024466;28;20686;-78
2022/11/21 11:32:21;;;;;;;3.78;1.40;;;;;;;11.69;100.00;99216.91;5028208;28;20212;-75
2022/11/21 11:34:57;;;;;;;3.60;1.60;;;;;;;11.15;100.00;99199.97;5017094;28;20231;-74
2022/11/21 11:37:32;;;;;;;3.75;1.48;;;;;;;10.62;100.00;99200.66;5022291;28;20190;-73
2022/11/21 11:40:07;;;;;;;8.68;1.60;;;;;;;10.18;100.00;99193.59;5004977;28;20212;-73
2022/11/21 11:49:00;;;;;;;4.07;1.40;;;;;;;9.94;100.00;99171.78;5006785;28;20441;-73
2022/11/21 11:51:35;;;;;;;4.45;1.42;;;;;;;10.65;100.00;99167.31;5011551;28;20222;-74
2022/11/21 11:54:08;;;;;;;2.70;1.38;;;;;;;10.77;100.00;99161.13;5017971;28;20249;-74
2022/11/21 11:56:37;;;;;;;2.25;1.23;;;;;;;10.55;100.00;99167.03;5014489;28;20202;-75
2022/11/21 11:59:12;;;;;;;3.67;1.23;;;;;;;10.11;100.00;99157.28;5017848;28;20198;-75